Time;durP1;ratioP1;P1;durP2;ratioP2;P2;SDS_P1;SDS_P2;PMS_P1;PMS_P2;Temp;Humidity;BMP_temperature;BMP_pressure;BME280_temperature;BME280_humidity;BME280_pressure;Samples;Min_cycle;Max_cycle;Signal;HPM_P1;HPM_P2
2023/05/08 00:00:38;;;;;;;32.63;20.48;;;15.80;99.90;;;;;;4998687;28;20095;-77
2023/05/08 00:03:06;;;;;;;31.05;19.85;;;15.80;99.90;;;;;;5012659;28;20656;-78
2023/05/08 00:05:32;;;;;;;27.77;19.70;;;15.80;99.90;;;;;;5015319;28;20033;-77
2023/05/08 00:08:00;;;;;;;29.80;19.50;;;15.70;99.90;;;;;;4996741;28;20115;-77
2023/05/08 00:10:27;;;;;;;30.08;19.10;;;15.60;99.90;;;;;;5002747;28;20276;-77
2023/05/08 00:12:54;;;;;;;30.08;20.20;;;15.60;99.90;;;;;;5011901;28;20032;-78
2023/05/08 00:15:19;;;;;;;30.48;19.38;;;15.60;99.90;;;;;;4997409;28;20079;-77
2023/05/08 00:17:45;;;;;;;28.38;19.00;;;15.50;99.90;;;;;;5015017;28;20108;-77
2023/05/08 00:20:11;;;;;;;29.08;18.88;;;15.50;99.90;;;;;;5020369;28;20050;-77
2023/05/08 00:22:39;;;;;;;28.17;19.13;;;15.50;99.90;;;;;;5015620;28;20435;-77
2023/05/08 00:25:05;;;;;;;27.80;19.83;;;15.40;99.90;;;;;;5020580;28;20338;-77
2023/05/08 00:27:31;;;;;;;27.00;18.73;;;15.40;99.90;;;;;;5019328;28;20045;-77
2023/05/08 00:29:57;;;;;;;27.02;18.75;;;15.40;99.90;;;;;;5017601;28;20498;-77
2023/05/08 00:32:23;;;;;;;29.48;18.38;;;15.30;99.90;;;;;;5019881;28;20021;-77
2023/05/08 00:34:51;;;;;;;26.23;18.65;;;15.30;99.90;;;;;;5013914;28;20030;-77
2023/05/08 00:37:19;;;;;;;29.45;19.38;;;15.20;99.90;;;;;;5016974;28;20056;-77
2023/05/08 00:39:45;;;;;;;27.75;19.85;;;15.30;99.90;;;;;;5015376;28;20029;-78
2023/05/08 00:42:10;;;;;;;28.90;19.83;;;15.30;99.90;;;;;;5020379;28;20021;-77
2023/05/08 00:44:38;;;;;;;31.23;18.83;;;15.30;99.90;;;;;;5014374;28;20320;-77
2023/05/08 00:47:04;;;;;;;28.80;18.45;;;15.20;99.90;;;;;;5017681;28;20125;-77
2023/05/08 00:49:30;;;;;;;26.55;18.67;;;15.20;99.90;;;;;;5016409;28;20025;-77
2023/05/08 00:51:56;;;;;;;29.88;18.80;;;15.10;99.90;;;;;;5015945;28;20022;-77
2023/05/08 00:54:22;;;;;;;30.05;18.17;;;15.10;99.90;;;;;;5018439;28;20033;-77
2023/05/08 00:56:50;;;;;;;28.60;19.23;;;15.10;99.90;;;;;;5005392;28;20084;-78
2023/05/08 00:59:19;;;;;;;31.13;19.45;;;15.00;99.90;;;;;;5016809;28;20018;-77
2023/05/08 01:01:46;;;;;;;28.70;19.58;;;15.00;99.90;;;;;;5015879;28;20071;-77
2023/05/08 01:04:17;;;;;;;27.08;18.13;;;15.00;99.90;;;;;;5013930;28;20021;-77
2023/05/08 01:06:42;;;;;;;25.67;18.02;;;15.00;99.90;;;;;;4999965;28;20021;-77
2023/05/08 01:09:08;;;;;;;28.35;19.00;;;14.90;99.90;;;;;;5016592;28;20045;-77
2023/05/08 01:11:45;;;;;;;27.02;18.50;;;15.00;99.90;;;;;;5016091;28;20049;-77
2023/05/08 01:14:21;;;;;;;26.63;17.77;;;15.00;99.90;;;;;;4999016;28;20026;-76
2023/05/08 01:16:55;;;;;;;28.30;18.02;;;15.00;99.90;;;;;;5015502;28;20446;-77
2023/05/08 01:19:42;;;;;;;26.35;18.63;;;15.00;99.90;;;;;;5016234;28;20029;-77
2023/05/08 01:22:39;;;;;;;26.75;18.33;;;15.00;99.90;;;;;;4996979;28;20022;-77
2023/05/08 01:25:07;;;;;;;31.48;18.83;;;15.00;99.90;;;;;;5018272;28;20022;-78
2023/05/08 01:27:55;;;;;;;28.77;18.73;;;15.00;99.90;;;;;;5018830;28;20026;-77
2023/05/08 01:30:52;;;;;;;26.70;19.45;;;14.90;99.90;;;;;;5017171;28;20044;-77
2023/05/08 01:33:31;;;;;;;24.67;17.75;;;14.90;99.90;;;;;;5015303;28;20026;-77
2023/05/08 01:36:10;;;;;;;27.23;18.77;;;14.90;99.90;;;;;;5018585;28;20092;-77
2023/05/08 01:38:52;;;;;;;27.88;18.35;;;14.80;99.90;;;;;;5014303;28;20063;-77
2023/05/08 01:41:26;;;;;;;27.85;17.98;;;14.80;99.90;;;;;;5019675;28;20022;-77
2023/05/08 01:44:14;;;;;;;30.17;18.02;;;14.90;99.90;;;;;;5015874;28;20516;-77
2023/05/08 01:46:44;;;;;;;26.05;18.02;;;14.90;99.90;;;;;;5010186;28;20095;-77
2023/05/08 01:49:16;;;;;;;25.08;18.10;;;14.90;99.90;;;;;;5003558;28;20404;-77
2023/05/08 01:51:51;;;;;;;25.08;18.05;;;14.90;99.90;;;;;;5013799;28;20030;-77
2023/05/08 01:54:23;;;;;;;25.63;18.10;;;14.90;99.90;;;;;;5001319;28;20386;-78
2023/05/08 01:56:52;;;;;;;23.55;16.48;;;14.90;99.90;;;;;;4995950;28;20064;-77
2023/05/08 01:59:23;;;;;;;23.77;17.83;;;14.90;99.90;;;;;;4996170;28;20604;-77
2023/05/08 02:01:53;;;;;;;26.20;18.48;;;14.90;99.90;;;;;;5015631;28;20037;-76
2023/05/08 02:04:19;;;;;;;25.33;17.45;;;14.90;99.90;;;;;;4996557;28;20025;-77
2023/05/08 02:06:45;;;;;;;27.20;17.75;;;14.90;99.90;;;;;;5017926;28;20036;-77
2023/05/08 02:09:11;;;;;;;25.50;17.63;;;14.80;99.90;;;;;;5011582;28;20026;-77
2023/05/08 02:11:40;;;;;;;25.55;17.17;;;14.80;99.90;;;;;;4997839;28;20041;-77
2023/05/08 02:14:07;;;;;;;25.15;17.67;;;14.80;99.90;;;;;;5012877;28;20061;-77
2023/05/08 02:16:34;;;;;;;26.45;18.45;;;14.80;99.90;;;;;;4998095;28;20021;-77
2023/05/08 02:19:02;;;;;;;28.80;17.92;;;14.80;99.90;;;;;;5013890;28;20118;-77
2023/05/08 02:21:30;;;;;;;24.48;16.83;;;14.70;99.90;;;;;;5012227;28;20044;-77
2023/05/08 02:23:58;;;;;;;23.20;17.70;;;14.70;99.90;;;;;;5011085;28;20770;-78
2023/05/08 02:26:25;;;;;;;23.02;17.52;;;14.70;99.90;;;;;;5011606;28;20030;-77
2023/05/08 02:28:53;;;;;;;24.48;17.45;;;14.70;99.90;;;;;;5015132;28;20496;-77
2023/05/08 02:31:19;;;;;;;22.40;17.23;;;14.70;99.90;;;;;;5003324;28;20075;-77
2023/05/08 02:33:48;;;;;;;23.55;17.15;;;14.70;99.90;;;;;;4996825;28;20142;-77
2023/05/08 02:36:17;;;;;;;23.83;16.50;;;14.70;99.90;;;;;;5017788;28;20021;-77
2023/05/08 02:38:47;;;;;;;24.52;17.75;;;14.70;99.90;;;;;;5016104;28;20509;-77
2023/05/08 02:41:14;;;;;;;20.35;15.85;;;14.70;99.90;;;;;;5016106;28;20018;-77
2023/05/08 02:43:40;;;;;;;25.85;17.65;;;14.70;99.90;;;;;;5011361;28;20025;-77
2023/05/08 02:46:08;;;;;;;29.10;17.15;;;14.70;99.90;;;;;;5009955;28;20029;-77
2023/05/08 02:48:39;;;;;;;22.88;16.55;;;14.70;99.90;;;;;;5012293;28;20030;-77
2023/05/08 02:51:18;;;;;;;24.63;17.10;;;14.80;99.90;;;;;;5016145;28;20021;-77
2023/05/08 02:53:58;;;;;;;23.45;16.88;;;14.80;99.90;;;;;;5001008;28;20396;-77
2023/05/08 02:56:52;;;;;;;27.25;17.10;;;14.80;99.90;;;;;;5013125;28;20102;-77
2023/05/08 02:59:22;;;;;;;24.75;17.10;;;14.80;99.90;;;;;;4989852;28;20026;-77
2023/05/08 03:01:58;;;;;;;25.83;17.30;;;14.80;99.90;;;;;;4998975;28;20029;-77
2023/05/08 03:04:30;;;;;;;23.83;17.10;;;14.80;99.90;;;;;;5014823;28;20013;-76
2023/05/08 03:06:57;;;;;;;19.75;15.63;;;14.70;99.90;;;;;;5013024;28;20061;-77
2023/05/08 03:09:25;;;;;;;22.58;16.35;;;14.70;99.90;;;;;;4999859;28;20096;-77
2023/05/08 03:12:02;;;;;;;22.63;17.15;;;14.70;99.90;;;;;;5013795;28;20029;-77
2023/05/08 03:14:31;;;;;;;22.52;16.33;;;14.70;99.90;;;;;;5013601;28;20022;-76
2023/05/08 03:16:59;;;;;;;26.20;16.90;;;14.70;99.90;;;;;;5002142;28;20455;-77
2023/05/08 03:19:34;;;;;;;20.95;16.17;;;14.70;99.90;;;;;;5012866;28;20018;-77
2023/05/08 03:22:02;;;;;;;22.38;16.30;;;14.70;99.90;;;;;;5011928;28;20026;-77
2023/05/08 03:24:30;;;;;;;22.45;16.13;;;14.70;99.90;;;;;;5011506;28;20524;-77
2023/05/08 03:26:57;;;;;;;21.08;16.45;;;14.70;99.90;;;;;;5014882;28;20081;-76
2023/05/08 03:29:24;;;;;;;26.20;17.48;;;14.70;99.90;;;;;;5009876;28;20030;-76
2023/05/08 03:31:51;;;;;;;24.02;15.95;;;14.70;99.90;;;;;;5010338;28;20166;-76
2023/05/08 03:34:18;;;;;;;21.85;15.95;;;14.60;99.90;;;;;;5015827;28;20049;-76
2023/05/08 03:36:44;;;;;;;21.80;16.45;;;14.60;99.90;;;;;;5015537;28;20028;-84
2023/05/08 03:39:12;;;;;;;22.63;16.42;;;14.60;99.90;;;;;;4997397;28;20381;-76
2023/05/08 03:41:38;;;;;;;23.08;16.92;;;14.60;99.90;;;;;;5001754;28;20049;-77
2023/05/08 03:44:04;;;;;;;29.13;16.55;;;14.50;99.90;;;;;;5000219;28;20145;-82
2023/05/08 03:46:31;;;;;;;25.55;17.23;;;14.50;99.90;;;;;;5013511;28;20064;-83
2023/05/08 03:48:59;;;;;;;22.90;16.33;;;14.50;99.90;;;;;;5005328;28;20022;-83
2023/05/08 03:51:26;;;;;;;23.52;17.13;;;14.50;99.90;;;;;;5014525;28;20388;-84
2023/05/08 03:53:52;;;;;;;28.80;16.00;;;14.50;99.90;;;;;;5014689;28;20050;-83
2023/05/08 03:56:20;;;;;;;23.13;16.80;;;14.50;99.90;;;;;;5017264;28;20053;-85
2023/05/08 03:58:54;;;;;;;25.13;17.08;;;14.50;99.90;;;;;;4999951;28;20068;-77
2023/05/08 04:01:41;;;;;;;22.60;15.98;;;14.50;99.90;;;;;;5009999;28;20040;-83
2023/05/08 04:04:38;;;;;;;25.15;16.48;;;14.50;99.90;;;;;;5003101;28;20025;-83
2023/05/08 04:07:36;;;;;;;22.92;16.50;;;14.50;99.90;;;;;;4995761;28;20117;-83
2023/05/08 04:10:21;;;;;;;21.13;15.85;;;14.50;99.90;;;;;;5003531;28;20022;-85
2023/05/08 04:13:08;;;;;;;24.73;15.88;;;14.50;99.90;;;;;;5004102;28;20018;-83
2023/05/08 04:15:51;;;;;;;25.02;15.90;;;14.50;99.90;;;;;;4997226;28;20108;-80
2023/05/08 04:18:23;;;;;;;21.75;16.50;;;14.50;99.90;;;;;;4995109;28;20082;-77
2023/05/08 04:20:53;;;;;;;30.67;17.42;;;14.60;99.90;;;;;;5013994;28;20026;-76
2023/05/08 04:23:21;;;;;;;21.20;16.67;;;14.60;99.90;;;;;;4993159;28;20033;-77
2023/05/08 04:25:48;;;;;;;25.05;16.52;;;14.60;99.90;;;;;;5014941;28;20291;-77
2023/05/08 04:28:14;;;;;;;27.80;16.73;;;14.70;99.90;;;;;;5011850;28;20105;-77
2023/05/08 04:30:41;;;;;;;22.60;17.08;;;14.70;99.90;;;;;;5014516;28;20065;-77
2023/05/08 04:33:07;;;;;;;24.23;16.10;;;14.70;99.90;;;;;;4996358;28;20109;-76
2023/05/08 04:35:33;;;;;;;25.55;16.42;;;14.70;99.90;;;;;;5012248;28;20022;-76
2023/05/08 04:37:58;;;;;;;19.05;16.05;;;14.70;99.90;;;;;;5014186;28;20026;-77
2023/05/08 04:40:24;;;;;;;27.00;16.45;;;14.70;99.90;;;;;;4996586;28;20122;-77
2023/05/08 04:42:50;;;;;;;32.78;15.82;;;14.70;99.90;;;;;;5003119;28;20336;-77
2023/05/08 04:45:16;;;;;;;25.58;16.23;;;14.70;99.90;;;;;;5012064;28;20033;-76
2023/05/08 04:47:42;;;;;;;27.00;17.35;;;14.70;99.90;;;;;;4999219;28;20018;-76
2023/05/08 04:50:10;;;;;;;20.90;16.40;;;14.80;99.90;;;;;;4997145;28;20037;-76
2023/05/08 04:52:36;;;;;;;22.58;16.27;;;14.80;99.90;;;;;;5012800;28;20967;-77
2023/05/08 04:55:01;;;;;;;22.25;16.27;;;14.80;99.90;;;;;;5012089;28;20033;-76
2023/05/08 04:57:27;;;;;;;23.80;17.27;;;14.80;99.90;;;;;;5012199;28;20430;-77
2023/05/08 04:59:55;;;;;;;28.10;16.52;;;14.80;99.90;;;;;;5002664;28;20054;-76
2023/05/08 05:02:20;;;;;;;24.10;17.42;;;14.80;99.90;;;;;;5015364;28;20478;-77
2023/05/08 05:04:48;;;;;;;19.80;16.15;;;14.90;99.90;;;;;;5018897;28;20265;-76
2023/05/08 05:07:14;;;;;;;22.98;16.65;;;14.90;99.90;;;;;;5004550;28;20432;-76
2023/05/08 05:09:40;;;;;;;25.75;15.52;;;14.90;99.90;;;;;;5014912;28;20022;-77
2023/05/08 05:12:06;;;;;;;23.65;17.00;;;14.90;99.90;;;;;;5015404;28;20109;-76
2023/05/08 05:14:32;;;;;;;22.88;17.08;;;15.00;99.90;;;;;;5019456;28;20071;-76
2023/05/08 05:16:58;;;;;;;23.75;17.58;;;15.00;99.90;;;;;;5012376;28;20041;-76
2023/05/08 05:19:23;;;;;;;22.23;15.98;;;15.00;99.90;;;;;;5018054;28;20018;-76
2023/05/08 05:21:49;;;;;;;23.13;16.02;;;14.90;99.90;;;;;;5019432;28;20539;-76
2023/05/08 05:24:15;;;;;;;20.55;16.10;;;14.90;99.90;;;;;;5015118;28;20061;-76
2023/05/08 05:26:40;;;;;;;24.40;16.25;;;15.00;99.90;;;;;;5016879;28;20325;-77
2023/05/08 05:29:06;;;;;;;20.35;15.77;;;15.10;99.90;;;;;;4998336;28;20014;-76
2023/05/08 05:31:32;;;;;;;27.60;16.98;;;15.10;99.90;;;;;;5017346;28;20497;-77
2023/05/08 05:33:58;;;;;;;23.20;15.93;;;15.20;99.90;;;;;;5005850;28;20041;-77
2023/05/08 05:36:24;;;;;;;22.63;16.05;;;15.30;99.90;;;;;;5017655;28;20030;-77
2023/05/08 05:38:49;;;;;;;20.95;15.75;;;15.40;99.90;;;;;;5017759;28;20153;-76
2023/05/08 05:41:15;;;;;;;22.60;16.45;;;15.50;99.90;;;;;;5019514;28;20018;-76
2023/05/08 05:43:40;;;;;;;22.77;16.63;;;15.50;99.90;;;;;;5007587;28;20030;-77
2023/05/08 05:46:08;;;;;;;20.95;15.32;;;15.60;99.90;;;;;;5015079;28;20032;-77
2023/05/08 05:48:34;;;;;;;21.25;15.95;;;15.60;99.90;;;;;;5017743;28;20370;-77
2023/05/08 05:51:00;;;;;;;21.42;16.67;;;15.70;99.90;;;;;;5019529;28;20444;-77
2023/05/08 05:53:25;;;;;;;21.70;16.75;;;15.70;99.90;;;;;;4995824;28;20116;-77
2023/05/08 05:55:51;;;;;;;25.08;16.40;;;15.80;99.90;;;;;;5017675;28;20157;-76
2023/05/08 05:58:17;;;;;;;22.00;16.55;;;16.00;99.90;;;;;;5012563;28;20034;-77
2023/05/08 06:00:43;;;;;;;23.55;16.55;;;16.10;99.90;;;;;;5017192;28;20022;-76
2023/05/08 06:03:12;;;;;;;23.65;16.85;;;16.30;99.90;;;;;;5000205;28;20030;-77
2023/05/08 06:05:41;;;;;;;24.05;16.65;;;16.30;99.90;;;;;;5016660;28;20068;-77
2023/05/08 06:08:10;;;;;;;27.45;16.90;;;16.40;99.90;;;;;;5000886;28;20370;-77
2023/05/08 06:10:35;;;;;;;23.60;16.98;;;16.50;99.90;;;;;;5001031;28;20123;-77
2023/05/08 06:13:01;;;;;;;22.23;17.25;;;16.60;99.90;;;;;;5014865;28;20080;-77
2023/05/08 06:15:27;;;;;;;23.98;16.90;;;16.70;99.90;;;;;;5015735;28;20083;-77
2023/05/08 06:17:53;;;;;;;24.80;17.23;;;16.80;99.90;;;;;;5016654;28;20466;-77
2023/05/08 06:20:19;;;;;;;21.80;15.98;;;16.90;99.90;;;;;;5013217;28;20385;-77
2023/05/08 06:22:47;;;;;;;24.02;16.50;;;17.00;99.90;;;;;;4999104;28;20025;-76
2023/05/08 06:25:15;;;;;;;24.10;16.75;;;17.10;99.90;;;;;;4999294;28;20021;-76
2023/05/08 06:27:41;;;;;;;24.75;16.45;;;17.20;99.90;;;;;;5016520;28;20026;-77
2023/05/08 06:30:09;;;;;;;25.88;16.13;;;17.30;99.90;;;;;;5015276;28;20512;-77
2023/05/08 06:32:35;;;;;;;20.45;15.00;;;17.40;99.90;;;;;;5014365;28;20028;-76
2023/05/08 06:35:03;;;;;;;20.55;15.35;;;17.50;99.90;;;;;;5014214;28;20021;-77
2023/05/08 06:37:28;;;;;;;20.95;15.48;;;17.60;99.90;;;;;;5016608;28;20018;-77
2023/05/08 06:39:54;;;;;;;26.65;16.98;;;17.70;99.90;;;;;;5016894;28;20031;-77
2023/05/08 06:42:22;;;;;;;20.45;15.60;;;17.70;99.90;;;;;;5013781;28;20461;-77
2023/05/08 06:44:49;;;;;;;22.20;15.65;;;17.80;99.90;;;;;;5016893;28;20060;-76
2023/05/08 06:47:15;;;;;;;21.50;15.07;;;17.90;99.90;;;;;;4996227;28;20036;-76
2023/05/08 06:49:41;;;;;;;21.25;15.65;;;18.00;99.90;;;;;;5018194;28;20029;-77
2023/05/08 06:52:06;;;;;;;22.00;16.10;;;18.10;99.90;;;;;;5136746;23;20541;-83
2023/05/08 06:54:32;;;;;;;22.38;16.08;;;18.00;99.90;;;;;;5036758;28;20039;-87
2023/05/08 06:56:58;;;;;;;21.17;15.85;;;18.10;99.90;;;;;;5035409;28;20215;-85
2023/05/08 06:59:23;;;;;;;26.67;16.70;;;18.20;99.90;;;;;;5037415;28;20046;-85
2023/05/08 07:01:49;;;;;;;22.58;15.88;;;18.30;99.90;;;;;;5035018;28;20021;-80
2023/05/08 07:04:17;;;;;;;20.23;14.75;;;18.40;99.90;;;;;;5038339;28;20018;-87
2023/05/08 07:06:45;;;;;;;20.67;15.23;;;18.50;99.90;;;;;;5041201;28;20036;-86
2023/05/08 07:09:14;;;;;;;21.98;14.90;;;18.50;99.90;;;;;;5035993;28;20516;-87
2023/05/08 07:11:39;;;;;;;26.73;16.00;;;18.60;99.90;;;;;;5021653;28;20055;-87
2023/05/08 07:14:05;;;;;;;22.63;14.85;;;18.70;99.90;;;;;;5036344;28;20021;-84
2023/05/08 07:16:30;;;;;;;26.85;15.43;;;18.70;99.90;;;;;;5038721;28;20366;-89
2023/05/08 07:18:58;;;;;;;18.95;14.68;;;18.80;99.90;;;;;;5042263;28;20086;-86
2023/05/08 07:21:24;;;;;;;22.00;15.80;;;19.00;99.90;;;;;;5035999;28;20028;-88
2023/05/08 07:23:52;;;;;;;18.92;14.25;;;19.10;99.90;;;;;;5038234;28;20021;-84
2023/05/08 07:26:18;;;;;;;24.35;15.15;;;19.00;99.90;;;;;;5034842;28;20036;-86
2023/05/08 07:28:43;;;;;;;25.88;16.05;;;19.10;99.90;;;;;;5024365;28;20104;-82
2023/05/08 07:31:09;;;;;;;22.10;16.67;;;19.30;99.90;;;;;;5020051;28;20025;-87
2023/05/08 07:33:37;;;;;;;26.65;16.75;;;19.60;99.90;;;;;;5037450;28;20052;-82
2023/05/08 07:36:02;;;;;;;22.83;16.40;;;19.80;99.90;;;;;;5036195;28;20024;-86
2023/05/08 07:38:28;;;;;;;24.50;16.67;;;20.00;99.90;;;;;;5034026;28;20128;-88
2023/05/08 07:40:56;;;;;;;25.90;17.00;;;20.10;99.90;;;;;;5025848;28;20037;-88
2023/05/08 07:43:24;;;;;;;23.08;16.15;;;20.10;99.90;;;;;;5034385;28;20327;-83
2023/05/08 07:45:50;;;;;;;27.70;17.10;;;20.30;99.90;;;;;;5034479;28;20060;-82
2023/05/08 07:48:19;;;;;;;24.17;16.45;;;20.40;99.90;;;;;;5040680;28;20021;-86
2023/05/08 07:50:44;;;;;;;24.00;15.18;;;20.50;99.90;;;;;;5056535;28;20539;-80
2023/05/08 07:53:10;;;;;;;22.30;14.60;;;20.30;99.90;;;;;;5036461;28;20016;-87
2023/05/08 07:55:38;;;;;;;21.02;14.57;;;20.20;99.90;;;;;;5035958;28;20056;-79
2023/05/08 07:58:04;;;;;;;17.67;13.45;;;20.30;99.90;;;;;;5044760;28;20409;-81
2023/05/08 08:00:30;;;;;;;15.25;12.45;;;20.30;99.90;;;;;;5049388;28;20020;-84
2023/05/08 08:02:56;;;;;;;19.20;13.35;;;20.30;99.90;;;;;;5057770;28;20213;-80
2023/05/08 08:05:21;;;;;;;17.02;12.27;;;20.50;99.90;;;;;;5028130;28;20192;-82
2023/05/08 08:07:47;;;;;;;13.07;10.43;;;20.50;99.90;;;;;;5015594;28;20472;-83
2023/05/08 08:10:13;;;;;;;19.92;11.65;;;20.50;99.90;;;;;;5032685;28;20024;-82
2023/05/08 08:12:41;;;;;;;17.00;11.55;;;20.60;99.90;;;;;;5023528;28;20119;-87
2023/05/08 08:15:07;;;;;;;17.70;11.38;;;20.70;99.90;;;;;;5035175;28;20029;-84
2023/05/08 08:17:33;;;;;;;16.05;11.98;;;20.70;99.90;;;;;;5033265;28;20036;-85
2023/05/08 08:19:58;;;;;;;16.15;11.15;;;20.80;99.90;;;;;;5037391;28;20037;-85
2023/05/08 08:22:25;;;;;;;13.38;11.45;;;20.80;99.90;;;;;;5034971;28;20043;-86
2023/05/08 08:24:51;;;;;;;15.77;12.40;;;20.90;99.90;;;;;;5030800;28;20065;-81
2023/05/08 08:27:19;;;;;;;15.57;10.80;;;21.10;99.90;;;;;;5029705;28;20108;-87
2023/05/08 08:29:44;;;;;;;13.30;10.43;;;21.10;99.90;;;;;;5039669;28;20108;-84
2023/05/08 08:32:10;;;;;;;14.25;10.77;;;21.10;99.90;;;;;;5046569;28;20009;-84
2023/05/08 08:34:36;;;;;;;14.27;11.15;;;21.20;99.90;;;;;;5054102;28;20033;-84
2023/05/08 08:37:03;;;;;;;16.75;11.02;;;21.00;99.90;;;;;;5048568;28;20013;-85
2023/05/08 08:39:33;;;;;;;15.88;12.43;;;21.40;99.90;;;;;;5040169;28;20036;-86
2023/05/08 08:41:58;;;;;;;17.02;12.57;;;21.40;99.90;;;;;;5039799;28;20480;-86
2023/05/08 08:44:24;;;;;;;17.17;12.38;;;21.70;99.90;;;;;;5042291;28;20537;-89
2023/05/08 08:46:51;;;;;;;17.52;12.38;;;21.80;99.90;;;;;;5025606;28;20045;-85
2023/05/08 08:49:23;;;;;;;15.18;12.68;;;21.80;99.90;;;;;;5021528;28;20098;-84
2023/05/08 08:51:57;;;;;;;20.48;12.98;;;21.70;99.90;;;;;;5037514;28;20400;-79
2023/05/08 08:54:27;;;;;;;94.35;45.28;;;21.80;99.90;;;;;;5035858;28;20017;-86
2023/05/08 08:56:55;;;;;;;15.05;11.57;;;22.00;99.90;;;;;;5029468;28;20100;-88
2023/05/08 08:59:23;;;;;;;18.33;13.60;;;22.10;99.90;;;;;;5034464;28;20451;-86
2023/05/08 09:02:00;;;;;;;16.25;12.13;;;22.00;99.90;;;;;;5027647;28;20565;-89
2023/05/08 09:04:26;;;;;;;18.20;13.55;;;22.00;99.90;;;;;;5032517;28;20227;-89
2023/05/08 09:06:52;;;;;;;15.82;13.27;;;22.20;99.90;;;;;;5036933;28;20055;-86
2023/05/08 09:09:18;;;;;;;18.40;13.23;;;22.10;99.90;;;;;;5024437;28;20122;-87
2023/05/08 09:11:46;;;;;;;17.30;13.45;;;22.20;99.90;;;;;;5048920;28;20068;-84
2023/05/08 09:14:12;;;;;;;19.55;14.32;;;22.10;99.90;;;;;;5033462;28;20033;-83
2023/05/08 09:16:38;;;;;;;19.13;14.63;;;22.10;99.90;;;;;;5049719;28;20028;-82
2023/05/08 09:19:04;;;;;;;18.02;15.02;;;22.20;99.90;;;;;;5053744;28;20049;-84
2023/05/08 09:21:33;;;;;;;26.88;17.13;;;22.10;99.90;;;;;;5043334;28;20137;-79
2023/05/08 09:24:01;;;;;;;21.45;16.33;;;22.10;99.90;;;;;;5021707;28;20070;-87
2023/05/08 09:26:41;;;;;;;18.33;16.02;;;22.30;99.90;;;;;;5041058;28;20020;-79
2023/05/08 09:29:21;;;;;;;21.10;16.30;;;22.30;99.90;;;;;;5059871;28;20193;-81
2023/05/08 09:31:50;;;;;;;19.27;16.40;;;22.40;99.90;;;;;;5060849;28;20085;-80
2023/05/08 09:34:27;;;;;;;23.42;16.02;;;22.30;99.90;;;;;;5039802;28;20100;-84
2023/05/08 09:37:16;;;;;;;16.85;15.05;;;22.20;99.90;;;;;;5037413;28;20055;-86
2023/05/08 09:39:42;;;;;;;15.68;12.73;;;22.30;99.90;;;;;;5037565;28;20057;-84
2023/05/08 09:42:08;;;;;;;14.15;12.75;;;22.20;99.90;;;;;;5021234;28;20064;-85
2023/05/08 09:45:00;;;;;;;14.40;12.88;;;22.60;99.90;;;;;;5037081;28;20037;-85
2023/05/08 09:47:25;;;;;;;20.40;13.90;;;22.60;99.90;;;;;;5018148;28;20041;-85
2023/05/08 09:50:05;;;;;;;18.05;14.82;;;22.80;99.90;;;;;;5016612;28;20083;-82
2023/05/08 09:52:31;;;;;;;16.10;12.65;;;22.80;99.90;;;;;;5015007;28;20044;-81
2023/05/08 09:55:05;;;;;;;15.70;13.65;;;23.20;99.90;;;;;;5035930;28;20452;-85
2023/05/08 09:57:32;;;;;;;13.60;12.20;;;23.20;99.90;;;;;;5037584;28;20045;-83
2023/05/08 10:00:10;;;;;;;18.00;13.35;;;23.50;99.90;;;;;;5034852;28;20033;-83
2023/05/08 10:02:37;;;;;;;15.68;11.60;;;23.50;99.90;;;;;;5036699;28;20040;-85
2023/05/08 10:05:06;;;;;;;13.02;11.52;;;23.70;99.90;;;;;;5038080;28;20024;-81
2023/05/08 10:07:35;;;;;;;13.07;11.70;;;24.10;99.90;;;;;;5060915;28;20157;-82
2023/05/08 10:10:04;;;;;;;15.60;13.27;;;24.30;99.90;;;;;;5040435;28;20041;-87
2023/05/08 10:12:31;;;;;;;14.80;12.10;;;24.30;99.90;;;;;;5022276;28;20104;-86
2023/05/08 10:14:57;;;;;;;11.65;8.73;;;24.50;99.90;;;;;;5043414;28;20074;-81
2023/05/08 10:17:43;;;;;;;13.75;9.20;;;24.60;99.90;;;;;;5037427;28;20071;-81
2023/05/08 10:20:12;;;;;;;7.72;7.03;;;24.50;99.90;;;;;;5052005;28;20021;-83
2023/05/08 10:22:42;;;;;;;9.52;8.70;;;24.00;99.90;;;;;;5039531;28;20036;-81
2023/05/08 10:25:15;;;;;;;9.10;8.20;;;23.80;99.90;;;;;;5016471;28;20116;-84
2023/05/08 10:27:56;;;;;;;9.18;8.30;;;24.10;99.90;;;;;;5037372;28;20056;-85
2023/05/08 10:30:26;;;;;;;11.07;7.72;;;24.10;99.90;;;;;;5021781;28;20048;-89
2023/05/08 10:32:57;;;;;;;7.70;6.93;;;24.40;99.90;;;;;;5041250;28;20543;-85
2023/05/08 10:35:23;;;;;;;8.32;7.53;;;24.40;99.90;;;;;;5038313;28;20465;-81
2023/05/08 10:37:50;;;;;;;10.38;8.75;;;24.40;99.90;;;;;;5037948;28;20037;-88
2023/05/08 10:40:17;;;;;;;14.05;11.65;;;24.50;99.90;;;;;;5038955;28;20558;-89
2023/05/08 10:42:44;;;;;;;10.35;9.38;;;24.20;99.90;;;;;;5021293;28;20026;-87
2023/05/08 10:45:10;;;;;;;12.60;10.93;;;24.10;99.90;;;;;;5039263;28;20025;-88
2023/05/08 10:47:54;;;;;;;12.30;10.57;;;23.90;99.90;;;;;;5033061;28;20033;-87
2023/05/08 10:50:32;;;;;;;11.68;10.25;;;23.60;99.90;;;;;;5035275;28;20025;-84
2023/05/08 10:53:24;;;;;;;14.32;9.60;;;23.30;99.90;;;;;;5036240;28;20029;-80
2023/05/08 10:55:51;;;;;;;13.25;11.95;;;23.70;99.90;;;;;;5030806;28;20335;-87
2023/05/08 10:58:23;;;;;;;14.38;10.20;;;23.80;99.90;;;;;;5021219;28;20060;-85
2023/05/08 11:00:51;;;;;;;12.50;11.20;;;24.00;99.90;;;;;;5036003;28;20246;-86
2023/05/08 11:03:22;;;;;;;11.50;10.20;;;24.00;99.90;;;;;;5035837;28;20137;-83
2023/05/08 11:05:50;;;;;;;10.88;9.82;;;24.10;99.90;;;;;;5034456;28;20369;-87
2023/05/08 11:08:23;;;;;;;11.95;10.75;;;24.50;99.90;;;;;;5035629;28;20029;-85
2023/05/08 11:11:01;;;;;;;8.88;8.07;;;24.80;99.90;;;;;;5036580;28;20033;-84
2023/05/08 11:13:31;;;;;;;5.85;5.45;;;25.40;99.90;;;;;;5038831;28;20026;-84
2023/05/08 11:15:57;;;;;;;6.43;5.78;;;25.30;98.70;;;;;;5036833;28;20029;-89
2023/05/08 11:18:26;;;;;;;5.40;4.97;;;25.80;98.70;;;;;;5036111;28;20361;-83
2023/05/08 11:21:07;;;;;;;4.90;4.50;;;25.90;96.20;;;;;;5042492;28;20026;-84
2023/05/08 11:23:34;;;;;;;4.93;4.43;;;25.90;95.40;;;;;;5046331;28;20657;-88
2023/05/08 11:26:10;;;;;;;4.32;3.63;;;26.30;94.40;;;;;;5038538;28;20025;-85
2023/05/08 11:28:55;;;;;;;4.70;4.22;;;26.60;95.20;;;;;;5034120;28;20025;-84
2023/05/08 11:31:22;;;;;;;6.35;4.43;;;26.40;92.90;;;;;;5045440;28;20048;-82
2023/05/08 11:33:48;;;;;;;5.38;4.88;;;25.90;92.60;;;;;;5052834;28;20048;-83
2023/05/08 11:36:14;;;;;;;5.35;4.55;;;26.00;93.10;;;;;;5033981;28;20079;-85
2023/05/08 11:38:42;;;;;;;6.43;5.82;;;26.00;93.10;;;;;;5034111;28;20045;-87
2023/05/08 11:41:23;;;;;;;13.25;10.82;;;25.70;92.90;;;;;;5036805;28;20029;-81
2023/05/08 11:44:04;;;;;;;10.32;9.40;;;25.70;93.80;;;;;;5031798;28;20131;-86
2023/05/08 11:46:38;;;;;;;10.40;9.30;;;26.20;93.80;;;;;;5032320;28;20059;-83
2023/05/08 11:49:08;;;;;;;9.02;8.13;;;26.20;94.00;;;;;;5015926;28;20040;-87
2023/05/08 11:51:35;;;;;;;8.07;7.40;;;26.40;92.60;;;;;;5032034;28;20060;-84
2023/05/08 11:54:01;;;;;;;9.73;8.82;;;26.50;92.90;;;;;;5030979;28;20024;-88
2023/05/08 11:56:32;;;;;;;8.18;7.25;;;26.30;92.10;;;;;;5037451;28;20013;-88
2023/05/08 11:59:07;;;;;;;8.98;8.18;;;26.10;92.40;;;;;;5033603;28;20176;-89
2023/05/08 12:01:33;;;;;;;7.63;6.93;;;26.00;92.40;;;;;;5024481;28;20499;-83
2023/05/08 12:04:06;;;;;;;8.18;6.18;;;25.90;90.70;;;;;;5018757;28;20025;-85
2023/05/08 12:06:33;;;;;;;9.55;7.18;;;26.00;91.20;;;;;;5033164;28;20663;-82
2023/05/08 12:09:03;;;;;;;8.50;6.32;;;25.80;91.90;;;;;;5023377;28;20344;-81
2023/05/08 12:11:29;;;;;;;7.57;6.88;;;25.50;92.50;;;;;;5038010;28;20032;-88
2023/05/08 12:13:59;;;;;;;6.60;6.00;;;25.60;94.10;;;;;;5029823;28;20030;-86
2023/05/08 12:16:25;;;;;;;7.20;6.43;;;25.70;93.20;;;;;;5042366;28;20021;-87
2023/05/08 12:18:52;;;;;;;8.32;7.50;;;25.50;92.70;;;;;;5037576;28;20480;-83
2023/05/08 12:21:18;;;;;;;7.82;6.95;;;25.10;93.20;;;;;;5036692;28;20059;-79
2023/05/08 12:23:46;;;;;;;10.73;7.93;;;25.00;94.00;;;;;;5058451;28;20033;-85
2023/05/08 12:26:11;;;;;;;9.20;8.30;;;25.10;94.00;;;;;;5040093;28;20175;-87
2023/05/08 12:28:39;;;;;;;9.35;7.97;;;25.10;94.40;;;;;;5051063;28;20803;-86
2023/05/08 12:31:05;;;;;;;9.32;8.45;;;24.80;93.90;;;;;;5044406;28;20021;-83
2023/05/08 12:33:34;;;;;;;11.48;10.27;;;24.70;93.70;;;;;;5043265;28;20017;-83
2023/05/08 12:36:00;;;;;;;16.80;9.88;;;24.50;94.60;;;;;;5052982;28;20029;-87
2023/05/08 12:38:30;;;;;;;16.10;10.52;;;24.50;95.00;;;;;;5029001;28;20170;-85
2023/05/08 12:40:55;;;;;;;13.98;10.40;;;24.40;95.00;;;;;;5034928;28;20145;-85